Time;durP1;ratioP1;P1;durP2;ratioP2;P2;SDS_P1;SDS_P2;PMS_P1;PMS_P2;Temp;Humidity;BMP_temperature;BMP_pressure;BME280_temperature;BME280_humidity;BME280_pressure;Samples;Min_cycle;Max_cycle;Signal;HPM_P1;HPM_P2
2024/04/04 00:01:03;;;;;;;4.70;1.10;;;;;;;11.69;99.05;100614.59;5261866;28;20041;-78
2024/04/04 00:03:36;;;;;;;7.22;1.58;;;;;;;11.77;97.65;100615.69;5259078;28;20495;-78
2024/04/04 00:06:08;;;;;;;5.90;1.58;;;;;;;11.77;99.51;100611.28;5261348;28;20502;-78
2024/04/04 00:08:40;;;;;;;6.07;1.40;;;;;;;11.78;98.89;100612.94;5263790;28;20032;-78
2024/04/04 00:11:17;;;;;;;5.60;1.52;;;;;;;11.73;99.71;100612.53;5261169;28;20044;-78
2024/04/04 00:13:49;;;;;;;5.75;1.52;;;;;;;11.79;99.21;100609.34;5262825;28;20032;-78
2024/04/04 00:16:21;;;;;;;8.75;2.03;;;;;;;11.79;99.50;100604.09;5260795;28;20035;-78
2024/04/04 00:18:53;;;;;;;8.02;1.95;;;;;;;11.84;100.00;100609.75;5261726;28;20044;-78
2024/04/04 00:21:25;;;;;;;6.22;1.48;;;;;;;11.85;100.00;100598.28;5259154;28;20110;-78
2024/04/04 00:23:57;;;;;;;7.15;1.88;;;;;;;11.89;100.00;100606.69;5257516;28;20090;-78
2024/04/04 00:26:29;;;;;;;6.32;1.55;;;;;;;11.97;100.00;100604.19;5260845;28;20032;-79
2024/04/04 00:29:01;;;;;;;6.13;1.48;;;;;;;11.98;100.00;100602.41;5260200;28;20032;-78
2024/04/04 00:31:33;;;;;;;6.03;1.70;;;;;;;11.92;100.00;100588.84;5260121;28;20052;-78
2024/04/04 00:34:05;;;;;;;5.20;1.30;;;;;;;11.95;100.00;100584.31;5260277;28;20040;-78
2024/04/04 00:36:37;;;;;;;5.40;1.25;;;;;;;11.98;100.00;100589.28;5260037;28;20029;-78
2024/04/04 00:39:09;;;;;;;5.43;1.40;;;;;;;11.98;100.00;100594.53;5259797;28;20040;-78
2024/04/04 00:41:41;;;;;;;6.13;1.25;;;;;;;11.98;100.00;100581.41;5258968;28;20041;-78
2024/04/04 00:44:13;;;;;;;4.05;1.20;;;;;;;12.01;100.00;100583.69;5260576;28;20048;-78
2024/04/04 00:46:45;;;;;;;5.47;1.20;;;;;;;12.02;100.00;100578.31;5261299;28;20397;-78
2024/04/04 00:49:17;;;;;;;4.10;1.55;;;;;;;12.09;100.00;100573.31;5261604;28;20032;-78
2024/04/04 00:51:49;;;;;;;5.68;1.30;;;;;;;12.08;100.00;100566.41;5262654;28;20036;-78
2024/04/04 00:54:21;;;;;;;5.07;1.27;;;;;;;12.09;100.00;100558.38;5262171;28;20032;-77
2024/04/04 00:56:53;;;;;;;5.05;1.20;;;;;;;12.11;100.00;100559.06;5260636;28;20036;-78
2024/04/04 00:59:25;;;;;;;5.53;1.40;;;;;;;12.12;100.00;100552.00;5260087;28;20033;-78
2024/04/04 01:01:57;;;;;;;5.25;1.83;;;;;;;12.02;100.00;100527.63;5262219;28;20063;-78
2024/04/04 01:04:29;;;;;;;3.70;1.40;;;;;;;12.14;100.00;100542.19;5262875;28;20037;-78
2024/04/04 01:07:01;;;;;;;4.38;1.55;;;;;;;12.15;100.00;100526.28;5261807;28;20536;-78
2024/04/04 01:09:33;;;;;;;4.85;1.50;;;;;;;12.19;99.95;100524.19;5260503;28;20667;-78
2024/04/04 01:12:05;;;;;;;7.10;1.67;;;;;;;12.15;100.00;100512.31;5262282;28;20127;-78
2024/04/04 01:14:37;;;;;;;3.83;1.17;;;;;;;12.12;100.00;100497.72;5256538;28;20029;-78
2024/04/04 01:17:09;;;;;;;7.55;1.67;;;;;;;12.22;100.00;100505.50;5259432;28;20039;-78
2024/04/04 01:19:41;;;;;;;5.10;1.37;;;;;;;12.27;98.35;100505.03;5259134;28;20029;-78
2024/04/04 01:22:13;;;;;;;6.15;1.80;;;;;;;12.24;99.92;100502.75;5258235;28;20375;-77
2024/04/04 01:24:45;;;;;;;6.32;1.35;;;;;;;12.23;100.00;100496.63;5260495;28;20029;-78
2024/04/04 01:27:17;;;;;;;5.70;1.40;;;;;;;12.21;100.00;100501.22;5259459;28;20029;-78
2024/04/04 01:29:49;;;;;;;3.72;1.60;;;;;;;12.16;100.00;100491.19;5258951;28;20025;-77
2024/04/04 01:32:21;;;;;;;6.57;1.63;;;;;;;12.18;100.00;100498.91;5263468;28;20047;-77
2024/04/04 01:34:53;;;;;;;6.35;1.70;;;;;;;12.13;100.00;100485.41;5262477;28;20032;-78
2024/04/04 01:37:25;;;;;;;6.80;1.73;;;;;;;12.10;100.00;100480.44;5258710;28;20043;-78
2024/04/04 01:39:56;;;;;;;4.55;1.40;;;;;;;12.10;100.00;100477.81;5261573;28;20037;-78
2024/04/04 01:42:28;;;;;;;4.90;1.20;;;;;;;12.10;100.00;100481.25;5260907;28;20025;-79
2024/04/04 01:45:00;;;;;;;8.30;1.60;;;;;;;12.09;100.00;100477.00;5260443;28;20063;-78
2024/04/04 01:47:32;;;;;;;7.13;1.50;;;;;;;12.17;100.00;100478.88;5259409;28;20423;-78
2024/04/04 01:50:05;;;;;;;5.45;1.60;;;;;;;12.12;100.00;100473.22;5258138;28;20098;-78
2024/04/04 01:52:37;;;;;;;;;;;;;;;12.83;97.07;100470.53;5261146;28;20037;-78
2024/04/04 01:55:09;;;;;;;6.55;1.33;;;;;;;12.05;100.00;100459.06;5259596;28;20301;-78
2024/04/04 01:57:41;;;;;;;9.27;1.73;;;;;;;12.00;100.00;100458.66;5259895;28;20063;-78
2024/04/04 02:00:13;;;;;;;6.28;1.40;;;;;;;12.06;100.00;100469.41;5259140;28;20036;-77
2024/04/04 02:02:45;;;;;;;6.88;1.33;;;;;;;12.01;100.00;100457.69;5260480;28;20037;-77
2024/04/04 02:05:17;;;;;;;6.13;1.30;;;;;;;12.04;100.00;100467.88;5262212;28;20615;-78
2024/04/04 02:07:49;;;;;;;4.80;1.42;;;;;;;12.02;100.00;100457.56;5263086;28;20039;-77
2024/04/04 02:10:20;;;;;;;2.72;1.02;;;;;;;11.98;100.00;100461.44;5261100;28;20037;-77
2024/04/04 02:12:52;;;;;;;5.75;1.33;;;;;;;11.99;100.00;100460.47;5239962;28;20052;-78
2024/04/04 02:15:24;;;;;;;4.93;1.70;;;;;;;11.98;100.00;100452.75;5262032;28;20099;-78
2024/04/04 02:17:56;;;;;;;5.47;1.30;;;;;;;11.93;100.00;100433.03;5257892;28;20040;-78
2024/04/04 02:20:28;;;;;;;5.70;1.42;;;;;;;11.96;100.00;100437.13;5243749;28;20406;-78
2024/04/04 02:23:00;;;;;;;5.80;1.27;;;;;;;11.97;100.00;100422.19;5264899;28;20040;-79
2024/04/04 02:25:32;;;;;;;4.53;1.30;;;;;;;11.96;100.00;100428.44;5261149;28;20064;-78
2024/04/04 02:28:05;;;;;;;6.25;1.67;;;;;;;11.91;100.00;100426.25;5255244;28;20056;-78
2024/04/04 02:30:37;;;;;;;4.47;1.10;;;;;;;11.96;100.00;100417.94;5257859;28;20052;-79
2024/04/04 02:33:09;;;;;;;3.85;1.17;;;;;;;11.89;100.00;100404.56;5264549;28;20422;-79
2024/04/04 02:35:51;;;;;;;5.22;1.67;;;;;;;12.09;100.00;100408.72;5257459;28;20044;-78
2024/04/04 02:38:24;;;;;;;5.60;1.40;;;;;;;11.87;100.00;100402.09;5254575;28;20040;-78
2024/04/04 02:40:56;;;;;;;5.93;2.03;;;;;;;11.88;100.00;100392.44;5256920;28;20028;-78
2024/04/04 02:43:28;;;;;;;4.40;1.67;;;;;;;11.83;100.00;100382.38;5240998;28;20410;-78
2024/04/04 02:46:01;;;;;;;5.25;1.25;;;;;;;11.76;100.00;100372.59;5255720;28;20049;-78
2024/04/04 02:48:33;;;;;;;;;;;;;;;12.51;100.00;100373.09;5255353;28;20487;-78
2024/04/04 02:51:05;;;;;;;2.80;1.10;;;;;;;11.79;100.00;100360.00;5256672;28;19940;-78
2024/04/04 02:53:37;;;;;;;6.10;1.70;;;;;;;11.74;100.00;100356.97;5237937;28;20040;-78
2024/04/04 02:56:09;;;;;;;4.13;1.25;;;;;;;11.78;100.00;100354.88;5257828;28;20029;-78
2024/04/04 02:58:40;;;;;;;6.05;1.98;;;;;;;11.71;100.00;100349.44;5259502;28;20039;-79
2024/04/04 03:01:13;;;;;;;3.78;1.20;;;;;;;11.75;100.00;100342.91;5256786;28;20522;-78
2024/04/04 03:03:45;;;;;;;4.67;1.47;;;;;;;11.79;100.00;100339.00;5264028;28;20040;-79
2024/04/04 03:06:20;;;;;;;4.28;1.50;;;;;;;11.84;100.00;100338.59;5257972;28;20274;-78
2024/04/04 03:08:52;;;;;;;2.97;1.40;;;;;;;11.75;100.00;100323.72;5257391;28;20036;-80
2024/04/04 03:11:24;;;;;;;6.00;1.77;;;;;;;11.80;100.00;100324.09;5257282;28;20140;-78
2024/04/04 03:13:56;;;;;;;3.80;1.60;;;;;;;11.79;100.00;100325.06;5260865;28;20037;-78
2024/04/04 03:16:27;;;;;;;6.00;1.80;;;;;;;11.82;100.00;100328.22;5260635;28;20032;-78
2024/04/04 03:18:59;;;;;;;3.20;1.40;;;;;;;11.83;100.00;100321.16;5261466;28;20048;-79
2024/04/04 03:21:31;;;;;;;4.22;1.17;;;;;;;11.82;100.00;100311.63;5256602;28;20036;-79
2024/04/04 03:24:03;;;;;;;3.47;1.55;;;;;;;11.81;100.00;100315.22;5264976;28;20690;-78
2024/04/04 03:26:36;;;;;;;4.72;1.60;;;;;;;11.82;100.00;100294.09;5261720;28;20393;-78
2024/04/04 03:29:08;;;;;;;4.43;1.40;;;;;;;11.82;100.00;100294.09;5261093;28;20037;-79
2024/04/04 03:31:40;;;;;;;3.83;1.30;;;;;;;11.81;100.00;100289.81;5238896;28;20544;-79
2024/04/04 03:34:12;;;;;;;4.22;1.50;;;;;;;11.83;100.00;100289.66;5257374;28;20107;-79
2024/04/04 03:36:47;;;;;;;3.80;1.70;;;;;;;11.95;100.00;100282.41;5255844;28;20025;-78
2024/04/04 03:39:19;;;;;;;4.32;1.27;;;;;;;11.88;100.00;100275.13;5260216;28;20043;-77
2024/04/04 03:41:51;;;;;;;4.55;1.60;;;;;;;11.90;100.00;100270.56;5259124;28;20025;-78
2024/04/04 03:44:23;;;;;;;4.43;1.45;;;;;;;11.94;100.00;100273.72;5255232;28;20043;-78
2024/04/04 03:46:55;;;;;;;5.55;1.92;;;;;;;11.97;100.00;100269.94;5258105;28;20664;-79
2024/04/04 03:49:26;;;;;;;4.90;1.58;;;;;;;12.00;100.00;100272.25;5256229;28;20117;-78
2024/04/04 03:51:58;;;;;;;4.28;1.60;;;;;;;12.02;100.00;100267.69;5259199;28;20037;-78
2024/04/04 03:54:30;;;;;;;3.05;1.58;;;;;;;12.01;100.00;100258.16;5258963;28;20029;-78
2024/04/04 03:57:02;;;;;;;5.15;1.83;;;;;;;11.99;100.00;100241.75;5255469;28;20055;-78
2024/04/04 03:59:34;;;;;;;4.63;1.60;;;;;;;12.11;100.00;100246.56;5256728;28;20024;-79
2024/04/04 04:02:06;;;;;;;5.43;1.60;;;;;;;12.12;100.00;100248.25;5253850;28;20049;-79
2024/04/04 04:04:38;;;;;;;4.82;1.65;;;;;;;12.18;100.00;100246.78;5258219;28;20547;-79
2024/04/04 04:07:11;;;;;;;4.47;1.98;;;;;;;12.21;100.00;100235.16;5257936;28;20099;-79
2024/04/04 04:09:43;;;;;;;5.13;1.75;;;;;;;12.30;100.00;100235.03;5261003;28;20021;-78
2024/04/04 04:12:15;;;;;;;4.47;1.60;;;;;;;12.28;100.00;100231.75;5256692;28;20093;-79
2024/04/04 04:14:47;;;;;;;7.13;2.00;;;;;;;12.33;100.00;100237.34;5254458;28;20047;-78
2024/04/04 04:17:18;;;;;;;5.07;2.60;;;;;;;12.38;100.00;100227.19;5258109;28;20036;-78
2024/04/04 04:19:50;;;;;;;3.97;1.80;;;;;;;12.41;100.00;100226.88;5256576;28;20120;-77
2024/04/04 04:22:22;;;;;;;4.07;1.90;;;;;;;12.45;100.00;100231.81;5256293;28;20132;-78
2024/04/04 04:24:54;;;;;;;4.28;1.73;;;;;;;12.43;100.00;100218.84;5259860;28;20035;-78
2024/04/04 04:27:26;;;;;;;8.23;1.95;;;;;;;12.48;100.00;100221.00;5256086;28;20033;-78
2024/04/04 04:29:58;;;;;;;3.47;1.50;;;;;;;12.54;100.00;100220.34;5258725;28;20033;-78
2024/04/04 04:32:30;;;;;;;7.25;2.30;;;;;;;12.57;100.00;100225.31;5255616;28;20028;-78
2024/04/04 04:35:02;;;;;;;5.93;2.03;;;;;;;12.46;100.00;100204.56;5259107;28;20037;-78
2024/04/04 04:37:34;;;;;;;5.10;2.20;;;;;;;12.64;100.00;100221.06;5256836;28;20128;-78
2024/04/04 04:40:07;;;;;;;4.45;1.60;;;;;;;12.65;100.00;100220.94;5257841;28;20021;-78
2024/04/04 04:42:38;;;;;;;8.67;1.73;;;;;;;12.67;100.00;100202.34;5256351;28;20045;-79
2024/04/04 04:45:11;;;;;;;6.38;2.10;;;;;;;12.71;100.00;100203.69;5252443;28;20049;-78
2024/04/04 04:47:43;;;;;;;5.93;2.35;;;;;;;12.79;100.00;100208.13;5242155;28;20029;-78
2024/04/04 04:50:15;;;;;;;5.60;1.88;;;;;;;12.76;100.00;100203.19;5229571;28;20066;-78
2024/04/04 04:52:47;;;;;;;7.18;2.28;;;;;;;12.74;100.00;100192.84;5251972;28;20063;-79
2024/04/04 04:55:19;;;;;;;7.57;1.90;;;;;;;12.82;100.00;100202.56;5253353;28;20044;-79
2024/04/04 04:57:51;;;;;;;6.95;2.35;;;;;;;12.88;100.00;100194.06;5252209;28;20081;-79
2024/04/04 05:00:24;;;;;;;8.10;2.45;;;;;;;12.94;100.00;100195.19;5254759;28;20029;-79
2024/04/04 05:02:56;;;;;;;6.28;2.13;;;;;;;12.97;100.00;100192.25;5253656;28;20633;-79
2024/04/04 05:05:28;;;;;;;8.63;1.98;;;;;;;12.99;100.00;100185.00;5236329;28;20401;-80
2024/04/04 05:08:00;;;;;;;5.75;2.17;;;;;;;13.01;100.00;100175.97;5254449;28;20044;-78
2024/04/04 05:10:32;;;;;;;6.32;1.95;;;;;;;13.02;100.00;100171.53;5235405;28;20055;-80
2024/04/04 05:13:04;;;;;;;10.60;2.60;;;;;;;13.07;100.00;100170.09;5253912;28;20037;-80
2024/04/04 05:15:44;;;;;;;6.43;1.98;;;;;;;13.22;100.00;100169.41;5254552;28;20044;-79
2024/04/04 05:18:16;;;;;;;7.60;2.15;;;;;;;13.09;100.00;100160.22;5251814;28;20033;-80
2024/04/04 05:20:48;;;;;;;8.68;2.00;;;;;;;13.14;100.00;100172.88;5255085;28;20059;-80
2024/04/04 05:23:20;;;;;;;8.13;2.40;;;;;;;13.21;100.00;100165.16;5237253;28;20513;-78
2024/04/04 05:25:53;;;;;;;8.90;2.22;;;;;;;13.20;100.00;100171.41;5253093;28;20045;-79
2024/04/04 05:28:30;;;;;;;9.05;2.30;;;;;;;13.22;100.00;100162.38;5251890;28;20059;-78
2024/04/04 05:31:02;;;;;;;8.85;3.42;;;;;;;13.26;100.00;100163.72;5252106;28;20025;-78
2024/04/04 05:33:33;;;;;;;5.50;2.22;;;;;;;13.24;100.00;100160.41;5261427;28;20584;-78
2024/04/04 05:36:05;;;;;;;8.30;2.10;;;;;;;13.24;100.00;100152.53;5262488;28;20041;-78
2024/04/04 05:38:37;;;;;;;8.00;2.00;;;;;;;13.34;100.00;100155.81;5252915;28;20024;-78
2024/04/04 05:41:09;;;;;;;10.13;2.85;;;;;;;13.39;100.00;100158.78;5254557;28;20039;-79
2024/04/04 05:43:41;;;;;;;10.00;2.15;;;;;;;13.44;100.00;100160.09;5235425;28;20037;-79
2024/04/04 05:46:13;;;;;;;7.63;1.98;;;;;;;13.45;100.00;100154.69;5258950;28;20064;-79
2024/04/04 05:48:45;;;;;;;8.85;2.33;;;;;;;13.47;100.00;100162.38;5255549;28;20033;-80
2024/04/04 05:51:17;;;;;;;8.60;2.15;;;;;;;13.46;100.00;100151.03;5256971;28;20048;-80
2024/04/04 05:53:49;;;;;;;5.25;1.67;;;;;;;13.58;100.00;100162.06;5254067;28;20033;-80
2024/04/04 05:56:21;;;;;;;7.97;2.05;;;;;;;13.55;100.00;100155.31;5255263;28;20390;-79
2024/04/04 05:58:53;;;;;;;6.55;1.42;;;;;;;13.57;100.00;100149.88;5256926;28;20040;-80
2024/04/04 06:01:25;;;;;;;5.22;1.50;;;;;;;13.59;100.00;100158.44;5272292;22;20064;-77
2024/04/04 06:03:57;;;;;;;5.55;1.52;;;;;;;13.63;100.00;100154.47;5273619;28;20036;-77
2024/04/04 06:06:29;;;;;;;6.63;2.00;;;;;;;13.61;100.00;100161.72;5274845;28;20493;-78
2024/04/04 06:09:01;;;;;;;7.22;2.15;;;;;;;13.69;100.00;100163.53;5276474;28;20035;-78
2024/04/04 06:11:33;;;;;;;6.43;1.73;;;;;;;13.66;100.00;100151.50;5253890;28;20039;-77
2024/04/04 06:14:05;;;;;;;7.07;1.80;;;;;;;13.69;100.00;100172.25;5274320;28;20097;-78
2024/04/04 06:16:36;;;;;;;7.03;1.70;;;;;;;13.60;100.00;100160.91;5280078;28;20032;-76
2024/04/04 06:19:08;;;;;;;8.13;2.00;;;;;;;13.71;100.00;100169.44;5259120;28;20047;-78
2024/04/04 06:21:40;;;;;;;8.13;1.83;;;;;;;13.75;100.00;100176.00;5278285;28;20473;-76
2024/04/04 06:24:12;;;;;;;4.78;1.55;;;;;;;13.77;100.00;100160.88;5278120;28;20063;-77
2024/04/04 06:26:44;;;;;;;6.38;1.30;;;;;;;13.72;100.00;100158.75;5279854;28;20027;-77
2024/04/04 06:29:18;;;;;;;5.25;1.35;;;;;;;13.71;100.00;100162.34;5277165;28;20184;-78
2024/04/04 06:31:50;;;;;;;6.40;1.80;;;;;;;13.78;100.00;100173.03;5276316;28;20048;-78
2024/04/04 06:34:22;;;;;;;7.07;1.73;;;;;;;13.81;100.00;100168.25;5278506;28;20040;-78
2024/04/04 06:36:54;;;;;;;5.68;1.90;;;;;;;13.81;100.00;100163.00;5279305;28;20028;-76
2024/04/04 06:39:26;;;;;;;4.05;1.40;;;;;;;13.78;100.00;100165.97;5278780;28;20067;-78
2024/04/04 06:41:58;;;;;;;4.57;1.48;;;;;;;13.75;100.00;100158.41;5277949;28;20024;-78
2024/04/04 06:44:30;;;;;;;5.70;1.30;;;;;;;13.85;100.00;100171.38;5278439;28;20028;-78
2024/04/04 06:47:02;;;;;;;5.07;1.73;;;;;;;13.85;100.00;100169.56;5276665;28;20480;-78
2024/04/04 06:49:34;;;;;;;4.50;1.25;;;;;;;13.81;100.00;100173.53;5255995;28;20041;-78
2024/04/04 06:52:06;;;;;;;4.97;1.48;;;;;;;13.84;100.00;100167.94;5275259;28;20036;-77
2024/04/04 06:54:38;;;;;;;5.07;1.25;;;;;;;13.87;100.00;100167.59;5256941;28;20044;-78
2024/04/04 06:57:10;;;;;;;5.85;1.42;;;;;;;13.85;100.00;100172.19;5275110;28;20320;-77
2024/04/04 06:59:42;;;;;;;7.40;1.70;;;;;;;13.92;100.00;100175.00;5271422;28;20035;-77
2024/04/04 07:02:14;;;;;;;4.68;1.83;;;;;;;13.91;100.00;100172.53;5270166;28;20044;-77
2024/04/04 07:04:46;;;;;;;4.82;1.20;;;;;;;13.88;100.00;100168.41;5272290;28;20429;-77
2024/04/04 07:07:18;;;;;;;5.28;1.73;;;;;;;13.89;100.00;100175.31;5273996;28;20031;-77
2024/04/04 07:09:50;;;;;;;5.53;1.60;;;;;;;13.79;100.00;100164.19;5271913;28;20025;-77
2024/04/04 07:12:21;;;;;;;5.82;1.40;;;;;;;13.84;100.00;100167.13;5272812;28;20040;-77
2024/04/04 07:14:53;;;;;;;4.22;1.35;;;;;;;13.84;100.00;100169.75;5269492;28;20032;-78
2024/04/04 07:17:29;;;;;;;3.53;1.33;;;;;;;13.94;100.00;100169.53;5253955;28;20044;-77
2024/04/04 07:20:01;;;;;;;4.75;1.50;;;;;;;13.87;100.00;100162.34;5267328;28;20047;-78
2024/04/04 07:22:33;;;;;;;3.78;1.30;;;;;;;13.81;100.00;100154.28;5275045;28;20036;-76
2024/04/04 07:25:07;;;;;;;4.25;1.70;;;;;;;13.86;100.00;100167.75;5276341;28;20031;-77
2024/04/04 07:27:39;;;;;;;3.30;1.40;;;;;;;13.91;100.00;100167.28;5275256;28;20362;-78
2024/04/04 07:30:12;;;;;;;3.95;1.23;;;;;;;13.83;100.00;100166.31;5274700;28;20028;-77
2024/04/04 07:32:44;;;;;;;4.03;1.27;;;;;;;13.95;100.00;100164.13;5276763;28;20036;-76
2024/04/04 07:35:16;;;;;;;2.58;1.45;;;;;;;13.90;100.00;100153.25;5273497;28;20024;-77
2024/04/04 07:37:48;;;;;;;2.90;1.00;;;;;;;13.91;100.00;100135.69;5274620;28;20039;-77
2024/04/04 07:40:20;;;;;;;4.65;1.05;;;;;;;13.91;100.00;100138.31;5274278;28;20032;-77
2024/04/04 07:42:53;;;;;;;4.32;1.55;;;;;;;13.92;100.00;100158.38;5273768;28;20050;-76
2024/04/04 07:45:25;;;;;;;3.42;1.20;;;;;;;13.83;100.00;100154.94;5273762;28;20056;-78
2024/04/04 07:47:57;;;;;;;3.85;1.23;;;;;;;13.94;100.00;100172.19;5255180;28;20032;-76
2024/04/04 07:50:29;;;;;;;2.17;0.90;;;;;;;13.94;100.00;100178.28;5273443;28;20556;-78
2024/04/04 07:53:02;;;;;;;5.18;1.30;;;;;;;13.77;100.00;100168.78;5274004;28;20039;-78
2024/04/04 07:55:35;;;;;;;7.97;1.30;;;;;;;13.91;100.00;100183.06;5274855;28;20036;-77
2024/04/04 07:58:07;;;;;;;3.40;1.05;;;;;;;13.95;100.00;100195.72;5275828;28;20031;-78
2024/04/04 08:00:40;;;;;;;4.00;1.20;;;;;;;13.88;100.00;100195.56;5273788;28;20032;-76
2024/04/04 08:03:12;;;;;;;3.38;1.38;;;;;;;13.91;100.00;100204.97;5275837;28;20036;-78
2024/04/04 08:05:44;;;;;;;3.38;1.00;;;;;;;13.90;100.00;100205.09;5274948;28;20035;-78
2024/04/04 08:08:16;;;;;;;5.57;1.80;;;;;;;13.88;100.00;100192.13;5275452;28;20025;-78
2024/04/04 08:10:49;;;;;;;2.25;0.90;;;;;;;13.91;100.00;100193.59;5275923;28;20117;-78
2024/04/04 08:13:21;;;;;;;3.58;1.05;;;;;;;13.95;100.00;100198.38;5255228;28;20052;-76
2024/04/04 08:15:53;;;;;;;3.38;0.90;;;;;;;13.95;100.00;100205.44;5273974;28;20036;-77
2024/04/04 08:18:25;;;;;;;3.63;1.15;;;;;;;14.02;100.00;100198.53;5274891;28;20028;-77
2024/04/04 08:20:57;;;;;;;4.70;1.50;;;;;;;14.02;100.00;100211.69;5273824;28;20036;-78
2024/04/04 08:23:30;;;;;;;3.83;1.30;;;;;;;13.98;100.00;100213.00;5274456;28;20035;-77
2024/04/04 08:26:03;;;;;;;3.97;1.65;;;;;;;14.04;100.00;100233.41;5276283;28;20028;-76
2024/04/04 08:28:35;;;;;;;4.78;1.60;;;;;;;14.06;100.00;100244.59;5280356;28;20299;-78
2024/04/04 08:31:07;;;;;;;4.25;1.10;;;;;;;14.06;100.00;100220.91;5277590;28;20102;-78
2024/04/04 08:33:39;;;;;;;2.90;1.10;;;;;;;14.16;100.00;100228.59;5278203;28;20510;-77
2024/04/04 08:36:11;;;;;;;4.72;1.33;;;;;;;14.19;100.00;100223.00;5279897;28;20036;-76
2024/04/04 08:38:43;;;;;;;1.98;1.08;;;;;;;14.28;100.00;100221.97;5278272;28;20025;-78
2024/04/04 08:41:18;;;;;;;4.05;1.50;;;;;;;14.33;100.00;100235.47;5280564;28;20485;-76
2024/04/04 08:43:55;;;;;;;3.33;1.20;;;;;;;14.39;100.00;100233.97;5279662;28;20033;-77
2024/04/04 08:46:27;;;;;;;3.90;1.55;;;;;;;14.44;100.00;100239.56;5277640;28;20355;-78
2024/04/04 08:49:01;;;;;;;1.90;1.00;;;;;;;14.42;100.00;100229.19;5276331;28;20032;-78
2024/04/04 08:51:33;;;;;;;3.53;1.30;;;;;;;14.50;100.00;100247.63;5278012;28;20799;-78
2024/04/04 08:54:06;;;;;;;3.95;1.20;;;;;;;14.57;100.00;100235.41;5274384;28;20032;-78
2024/04/04 08:56:37;;;;;;;2.85;1.20;;;;;;;14.57;100.00;100239.88;5275293;28;20028;-77
2024/04/04 08:59:09;;;;;;;3.72;1.17;;;;;;;14.54;100.00;100243.66;5277277;28;20028;-78
2024/04/04 09:01:41;;;;;;;2.92;1.13;;;;;;;14.61;100.00;100241.16;5276726;28;20040;-77
2024/04/04 09:04:27;;;;;;;2.67;1.20;;;;;;;14.80;100.00;100227.56;5279027;28;20048;-77
2024/04/04 09:06:59;;;;;;;3.60;1.15;;;;;;;14.68;100.00;100238.69;5278459;28;20036;-77
2024/04/04 09:09:31;;;;;;;2.97;1.17;;;;;;;14.75;100.00;100240.44;5277930;28;20409;-76
2024/04/04 09:12:10;;;;;;;3.55;1.15;;;;;;;14.83;100.00;100243.06;5277908;28;20043;-77
2024/04/04 09:14:43;;;;;;;2.75;1.00;;;;;;;14.77;100.00;100241.13;5277159;28;20032;-78
2024/04/04 09:17:19;;;;;;;2.65;1.00;;;;;;;14.89;100.00;100245.97;5276426;28;20036;-76
2024/04/04 09:19:55;;;;;;;2.25;1.08;;;;;;;14.96;100.00;100246.94;5272841;28;20052;-78
2024/04/04 09:22:27;;;;;;;1.92;0.82;;;;;;;14.90;100.00;100237.91;5274559;28;20039;-78
2024/04/04 09:24:59;;;;;;;2.75;1.00;;;;;;;14.91;100.00;100251.91;5273177;28;20036;-77
2024/04/04 09:27:33;;;;;;;1.92;0.80;;;;;;;15.02;100.00;100262.09;5273876;28;20509;-77
2024/04/04 09:30:11;;;;;;;3.55;0.90;;;;;;;14.97;100.00;100259.16;5273897;28;20024;-77
2024/04/04 09:32:44;;;;;;;5.07;1.00;;;;;;;14.92;100.00;100257.00;5273905;28;20036;-77
2024/04/04 09:35:18;;;;;;;3.03;1.20;;;;;;;15.00;100.00;100257.00;5273686;28;20036;-77
2024/04/04 09:37:50;;;;;;;2.38;0.88;;;;;;;14.93;100.00;100285.06;5273928;28;20024;-76
2024/04/04 09:40:22;;;;;;;2.20;0.90;;;;;;;14.93;100.00;100273.69;5272182;28;20032;-78
2024/04/04 09:42:54;;;;;;;1.40;0.65;;;;;;;14.89;100.00;100280.25;5272544;28;20480;-77
2024/04/04 09:45:27;;;;;;;2.40;0.80;;;;;;;14.90;100.00;100295.94;5274613;28;20033;-79
2024/04/04 09:48:01;;;;;;;3.08;1.10;;;;;;;14.94;100.00;100299.06;5276208;28;20028;-78
2024/04/04 09:50:34;;;;;;;1.92;0.80;;;;;;;14.81;100.00;100294.31;5276567;28;20036;-78
2024/04/04 09:53:07;;;;;;;2.38;0.80;;;;;;;14.86;100.00;100286.72;5275544;28;20039;-78
2024/04/04 09:55:40;;;;;;;2.08;1.00;;;;;;;15.04;100.00;100291.75;5277996;28;20016;-78
2024/04/04 09:58:12;;;;;;;2.67;0.82;;;;;;;15.20;100.00;100285.56;5274716;28;20028;-77
2024/04/04 10:00:44;;;;;;;3.83;1.02;;;;;;;15.38;100.00;100287.91;5285502;22;20057;-78
2024/04/04 10:03:22;;;;;;;2.10;0.98;;;;;;;15.67;100.00;100292.53;5271241;28;20051;-78
2024/04/04 10:05:56;;;;;;;2.00;0.70;;;;;;;15.59;100.00;100298.66;5273472;28;20036;-78
2024/04/04 10:08:29;;;;;;;3.95;0.98;;;;;;;15.63;100.00;100292.03;5274902;28;20477;-78
2024/04/04 10:11:04;;;;;;;2.42;0.90;;;;;;;15.70;100.00;100303.56;5275464;28;20024;-78
2024/04/04 10:13:36;;;;;;;2.88;0.70;;;;;;;15.67;100.00;100303.91;5274828;28;20032;-78
2024/04/04 10:16:08;;;;;;;2.55;0.90;;;;;;;15.66;100.00;100307.56;5273665;28;20047;-78
2024/04/04 10:18:48;;;;;;;1.88;0.80;;;;;;;15.84;100.00;100299.34;5274408;28;20036;-78
2024/04/04 10:21:26;;;;;;;2.95;0.90;;;;;;;15.91;100.00;100313.50;5274815;28;20036;-77
2024/04/04 10:24:01;;;;;;;3.92;0.80;;;;;;;15.98;100.00;100303.00;5273936;28;20060;-78
2024/04/04 10:26:34;;;;;;;1.55;0.60;;;;;;;16.14;100.00;100308.16;5275271;28;20572;-78
2024/04/04 10:29:12;;;;;;;2.80;0.70;;;;;;;16.32;100.00;100297.25;5274427;28;20481;-78
2024/04/04 10:31:44;;;;;;;2.72;0.70;;;;;;;16.22;100.00;100302.81;5273216;28;20032;-78
2024/04/04 10:34:15;;;;;;;3.63;0.80;;;;;;;16.40;100.00;100313.03;5274667;28;20028;-78
2024/04/04 10:36:48;;;;;;;4.32;1.23;;;;;;;16.55;100.00;100302.44;5275315;28;20029;-78
2024/04/04 10:39:21;;;;;;;3.40;0.70;;;;;;;16.52;100.00;100318.69;5273792;28;20035;-78
2024/04/04 10:41:56;;;;;;;;;;;;;;;17.11;100.00;100316.03;5275043;28;20032;-77
2024/04/04 10:44:28;;;;;;;3.55;0.85;;;;;;;16.53;100.00;100337.03;5274767;28;19912;-78
2024/04/04 10:47:00;;;;;;;1.92;0.77;;;;;;;16.60;100.00;100315.97;5269189;28;20035;-78
2024/04/04 10:49:32;;;;;;;3.22;0.88;;;;;;;16.95;100.00;100324.19;5273577;28;20028;-77
2024/04/04 10:52:07;;;;;;;2.60;0.77;;;;;;;17.11;100.00;100321.31;5273974;28;20039;-78
2024/04/04 10:54:39;;;;;;;3.45;1.02;;;;;;;16.92;100.00;100319.25;5274719;28;20043;-78
2024/04/04 10:57:11;;;;;;;2.55;0.80;;;;;;;17.02;100.00;100330.38;5273447;28;20040;-78
2024/04/04 10:59:43;;;;;;;2.78;1.15;;;;;;;16.94;100.00;100325.19;5273109;28;20445;-78
2024/04/04 11:02:15;;;;;;;3.85;1.00;;;;;;;16.96;100.00;100321.34;5273407;28;20409;-79
2024/04/04 11:04:48;;;;;;;4.05;1.08;;;;;;;17.13;100.00;100337.03;5274920;28;20392;-78
2024/04/04 11:07:20;;;;;;;5.70;2.00;;;;;;;17.13;100.00;100337.03;5273174;28;20393;-78
2024/04/04 11:09:53;;;;;;;4.82;0.90;;;;;;;16.99;100.00;100334.22;5269641;28;20036;-78
2024/04/04 11:12:25;;;;;;;5.07;0.98;;;;;;;17.09;100.00;100349.81;5272084;28;20055;-78
2024/04/04 11:14:59;;;;;;;4.75;1.33;;;;;;;17.05;100.00;100355.63;5269562;28;20257;-78
2024/04/04 11:17:34;;;;;;;3.72;1.10;;;;;;;17.15;100.00;100348.25;5268731;28;20040;-78
2024/04/04 11:20:16;;;;;;;6.00;1.48;;;;;;;17.08;100.00;100358.75;5273203;28;20032;-78
2024/04/04 11:22:48;;;;;;;5.25;0.95;;;;;;;17.06;100.00;100358.13;5273977;28;20025;-78
2024/04/04 11:25:20;;;;;;;5.53;1.38;;;;;;;17.13;99.90;100345.78;5272530;28;20405;-77
2024/04/04 11:27:52;;;;;;;6.45;1.65;;;;;;;17.19;98.29;100362.75;5271443;28;20032;-78
2024/04/04 11:30:25;;;;;;;3.70;1.10;;;;;;;17.11;96.12;100349.63;5274888;28;20033;-78
2024/04/04 11:32:57;;;;;;;5.47;1.50;;;;;;;17.07;98.75;100364.22;5275211;28;20062;-78
2024/04/04 11:35:29;;;;;;;6.25;1.50;;;;;;;16.97;95.95;100365.34;5272780;28;20036;-78
2024/04/04 11:38:01;;;;;;;6.43;1.30;;;;;;;16.99;99.32;100367.78;5274951;28;20035;-78
2024/04/04 11:40:33;;;;;;;4.97;1.30;;;;;;;16.99;94.90;100367.78;5272884;28;20021;-78
2024/04/04 11:43:05;;;;;;;5.20;1.20;;;;;;;17.03;97.27;100374.34;5271564;28;20029;-78